createdAt,value
2017-10-17T00:02:51.680Z,99.40
2017-10-17T00:07:52.721Z,99.90
2017-10-17T00:12:53.792Z,99.90
2017-10-17T00:17:54.953Z,99.90
2017-10-17T00:22:56.023Z,99.90
2017-10-17T00:27:57.069Z,99.90
2017-10-17T00:32:58.129Z,99.90
2017-10-17T00:38:00.001Z,99.90
2017-10-17T00:43:04.805Z,99.90
2017-10-17T00:48:06.838Z,99.90
2017-10-17T00:53:07.894Z,99.90
2017-10-17T00:58:08.941Z,99.90
2017-10-17T01:03:10.721Z,99.90
2017-10-17T01:08:11.777Z,99.90
2017-10-17T01:13:13.545Z,99.90
2017-10-17T01:18:14.618Z,99.90
2017-10-17T01:23:20.657Z,99.90
2017-10-17T01:28:22.662Z,99.90
2017-10-17T01:33:23.725Z,99.90
2017-10-17T01:38:27.644Z,99.90
2017-10-17T01:43:28.705Z,99.90
2017-10-17T01:48:30.541Z,99.90
2017-10-17T01:53:33.514Z,99.90
2017-10-17T01:58:35.577Z,99.90
2017-10-17T02:03:37.649Z,99.90
2017-10-17T02:08:38.701Z,99.90
2017-10-17T02:13:39.761Z,99.90
2017-10-17T02:18:50.586Z,99.90
2017-10-17T02:23:51.730Z,99.90
2017-10-17T02:28:58.721Z,99.90
2017-10-17T02:34:00.682Z,99.90
2017-10-17T02:39:01.763Z,99.90
2017-10-17T02:44:02.814Z,99.90
2017-10-17T02:49:06.791Z,99.90
2017-10-17T02:54:07.786Z,99.90
2017-10-17T02:59:10.813Z,99.90
2017-10-17T03:04:11.861Z,99.90
2017-10-17T03:09:12.910Z,99.90
2017-10-17T03:19:45.229Z,99.90
2017-10-17T03:25:02.401Z,99.90
2017-10-17T03:30:04.571Z,99.90
2017-10-17T03:40:40.374Z,99.90
2017-10-17T03:45:42.543Z,99.90
2017-10-17T03:50:43.610Z,99.90
2017-10-17T03:55:44.649Z,99.90
2017-10-17T04:00:45.721Z,99.90
2017-10-17T04:05:56.751Z,99.90
2017-10-17T04:11:22.921Z,99.90
2017-10-17T04:16:40.601Z,99.90
2017-10-17T04:21:45.234Z,99.90
2017-10-17T04:26:51.174Z,99.90
2017-10-17T04:31:52.282Z,99.90
2017-10-17T04:36:59.233Z,99.90
2017-10-17T04:47:54.074Z,99.90
2017-10-17T04:53:07.502Z,99.90
2017-10-17T04:58:08.629Z,99.90
2017-10-17T05:03:15.673Z,99.90
2017-10-17T05:14:13.221Z,99.90
2017-10-17T05:19:24.213Z,99.90
2017-10-17T05:30:06.978Z,99.90
2017-10-17T05:35:10.025Z,99.90
2017-10-17T05:40:11.898Z,99.90
2017-10-17T05:45:13.757Z,99.90
2017-10-17T05:50:19.986Z,99.90
2017-10-17T05:55:21.007Z,99.90
2017-10-17T06:00:22.069Z,99.90
2017-10-17T06:05:23.133Z,99.90
2017-10-17T06:10:24.181Z,99.90
2017-10-17T06:15:25.238Z,99.90
2017-10-17T06:20:26.313Z,99.90
2017-10-17T06:25:27.474Z,99.90
2017-10-17T06:30:28.629Z,99.90
2017-10-17T06:35:29.713Z,99.90
2017-10-17T06:40:30.745Z,99.90
2017-10-17T06:45:31.809Z,99.90
2017-10-17T06:50:32.853Z,99.20
2017-10-17T06:55:37.609Z,96.50
2017-10-17T07:00:38.690Z,96.70
2017-10-17T07:05:39.739Z,95.90
2017-10-17T07:10:40.809Z,93.00
2017-10-17T07:15:41.866Z,89.90
2017-10-17T07:20:42.860Z,87.50
2017-10-17T07:25:43.961Z,86.60
2017-10-17T07:30:45.122Z,84.20
2017-10-17T07:35:46.189Z,81.50
2017-10-17T07:40:47.245Z,79.60
2017-10-17T07:45:49.341Z,75.80
2017-10-17T07:50:50.395Z,77.40
2017-10-17T07:55:51.454Z,74.70
2017-10-17T08:00:52.569Z,73.10
2017-10-17T08:05:53.783Z,69.50
2017-10-17T08:10:54.860Z,68.50
2017-10-17T08:15:55.889Z,66.80
2017-10-17T08:20:56.957Z,65.90
2017-10-17T08:25:58.005Z,65.00
2017-10-17T08:30:59.091Z,63.10
2017-10-17T08:36:00.206Z,62.60
2017-10-17T08:41:01.400Z,59.90
2017-10-17T08:46:02.435Z,63.70
2017-10-17T08:51:03.509Z,58.70
2017-10-17T08:56:04.670Z,58.60
2017-10-17T09:01:05.831Z,56.80
2017-10-17T09:06:06.929Z,55.10
2017-10-17T09:11:08.958Z,52.80
2017-10-17T09:16:11.075Z,51.80
2017-10-17T09:21:12.094Z,50.90
2017-10-17T09:26:13.162Z,48.30
2017-10-17T09:31:14.213Z,48.40
2017-10-17T09:36:15.274Z,47.00
2017-10-17T09:41:16.334Z,46.40
2017-10-17T09:46:17.391Z,45.00
2017-10-17T09:51:18.457Z,43.80
2017-10-17T09:56:19.513Z,44.00
2017-10-17T10:01:20.558Z,44.60
2017-10-17T10:06:21.632Z,46.00
2017-10-17T10:11:23.054Z,48.50
2017-10-17T10:16:24.250Z,50.90
2017-10-17T10:21:25.309Z,49.60
2017-10-17T10:26:26.379Z,50.00
2017-10-17T10:31:27.429Z,50.60
2017-10-17T10:36:28.486Z,50.70
2017-10-17T10:41:29.557Z,51.90
2017-10-17T10:46:30.613Z,51.40
2017-10-17T10:51:31.674Z,50.20
2017-10-17T10:56:32.701Z,50.90
2017-10-17T11:01:33.778Z,49.10
2017-10-17T11:06:34.845Z,49.40
2017-10-17T11:11:35.889Z,47.10
2017-10-17T11:16:37.045Z,48.10
2017-10-17T11:21:38.113Z,47.50
2017-10-17T11:26:39.170Z,47.60
2017-10-17T11:31:41.353Z,46.40
2017-10-17T11:36:42.490Z,47.20
2017-10-17T11:41:56.678Z,47.50
2017-10-17T11:46:57.814Z,47.50
2017-10-17T11:51:59.002Z,48.80
2017-10-17T11:57:00.059Z,49.00
2017-10-17T12:02:01.154Z,48.10
2017-10-17T12:07:02.203Z,49.00
2017-10-17T12:12:03.243Z,49.20
2017-10-17T12:17:04.386Z,49.50
2017-10-17T12:22:06.475Z,50.20
2017-10-17T12:27:07.541Z,48.60
2017-10-17T12:32:08.577Z,50.70
2017-10-17T12:37:09.698Z,50.30
2017-10-17T12:42:10.740Z,49.70
2017-10-17T12:47:11.768Z,48.40
2017-10-17T12:52:12.835Z,49.00
2017-10-17T12:57:13.873Z,49.20
2017-10-17T13:02:14.953Z,49.30
2017-10-17T13:07:16.010Z,48.00
2017-10-17T13:12:17.070Z,48.40
2017-10-17T13:17:18.117Z,49.60
2017-10-17T13:22:19.170Z,50.10
2017-10-17T13:27:20.270Z,47.90
2017-10-17T13:32:21.289Z,47.70
2017-10-17T13:37:22.345Z,47.60
2017-10-17T13:42:23.413Z,48.90
2017-10-17T13:47:24.409Z,47.20
2017-10-17T13:52:25.525Z,47.30
2017-10-17T13:57:26.589Z,48.00
2017-10-17T14:02:27.642Z,48.10
2017-10-17T14:07:28.722Z,49.20
2017-10-17T14:12:29.745Z,48.00
2017-10-17T14:17:30.849Z,48.00
2017-10-17T14:22:31.990Z,48.10
2017-10-17T14:27:33.145Z,48.80
2017-10-17T14:32:34.218Z,48.00
2017-10-17T14:37:35.249Z,47.90
2017-10-17T14:42:36.318Z,47.80
2017-10-17T14:47:37.379Z,48.70
2017-10-17T14:52:38.542Z,47.20
2017-10-17T14:57:40.642Z,48.10
2017-10-17T15:02:41.803Z,48.00
2017-10-17T15:07:42.946Z,49.60
2017-10-17T15:12:44.091Z,49.20
2017-10-17T15:17:45.175Z,48.50
2017-10-17T15:22:47.375Z,47.80
2017-10-17T15:27:48.487Z,50.30
2017-10-17T15:32:49.558Z,50.30
2017-10-17T15:37:50.621Z,53.20
2017-10-17T15:42:51.687Z,55.70
2017-10-17T15:47:52.726Z,52.80
2017-10-17T15:52:53.788Z,54.50
2017-10-17T15:57:54.858Z,52.20
2017-10-17T16:02:57.050Z,53.00
2017-10-17T16:07:58.093Z,54.80
2017-10-17T16:13:00.178Z,56.60
2017-10-17T16:18:01.251Z,58.70
2017-10-17T16:23:02.291Z,59.00
2017-10-17T16:28:03.351Z,60.90
2017-10-17T16:33:04.418Z,62.30
2017-10-17T16:38:05.599Z,64.20
2017-10-17T16:43:06.765Z,65.90
2017-10-17T16:48:07.839Z,66.60
2017-10-17T16:53:08.906Z,67.90
2017-10-17T16:58:09.954Z,69.00
2017-10-17T17:03:12.183Z,69.60
2017-10-17T17:08:13.496Z,70.60
2017-10-17T17:13:14.610Z,71.60
2017-10-17T17:18:15.777Z,70.60
2017-10-17T17:23:16.925Z,69.70
2017-10-17T17:28:17.977Z,69.60
2017-10-17T17:33:20.086Z,69.50
2017-10-17T17:38:21.248Z,69.00
2017-10-17T17:43:22.302Z,69.00
2017-10-17T17:48:23.362Z,69.10
2017-10-17T17:53:24.442Z,69.40
2017-10-17T17:58:25.476Z,68.50
2017-10-17T18:03:26.565Z,69.30
2017-10-17T18:08:27.697Z,67.80
2017-10-17T18:13:28.767Z,67.40
2017-10-17T18:18:29.826Z,68.10
2017-10-17T18:23:30.884Z,68.60
2017-10-17T18:28:31.933Z,68.70
2017-10-17T18:33:32.993Z,68.50
2017-10-17T18:38:34.078Z,68.30
2017-10-17T18:43:35.135Z,69.10
2017-10-17T18:48:36.278Z,69.10
2017-10-17T18:53:38.353Z,69.00
2017-10-17T18:58:39.447Z,69.50
2017-10-17T19:03:42.601Z,70.10
2017-10-17T19:08:43.738Z,70.20
2017-10-17T19:13:44.733Z,70.90
2017-10-17T19:18:45.901Z,71.40
2017-10-17T19:23:47.061Z,71.40
2017-10-17T19:28:49.141Z,72.30
2017-10-17T19:33:50.193Z,74.70
2017-10-17T19:38:51.256Z,75.80
2017-10-17T19:43:52.314Z,75.90
2017-10-17T19:48:53.478Z,77.00
2017-10-17T19:53:54.555Z,77.10
2017-10-17T19:58:55.597Z,77.80
2017-10-17T20:03:56.658Z,79.20
2017-10-17T20:08:57.717Z,79.90
2017-10-17T20:13:58.783Z,80.10
2017-10-17T20:18:59.832Z,80.70
2017-10-17T20:24:00.887Z,80.20
2017-10-17T20:29:03.069Z,80.10
2017-10-17T20:34:04.114Z,79.50
2017-10-17T20:39:05.180Z,79.70
2017-10-17T20:44:06.253Z,80.10
2017-10-17T20:49:07.301Z,79.80
2017-10-17T20:54:08.337Z,79.80
2017-10-17T20:59:10.139Z,79.40
2017-10-17T21:04:11.198Z,79.40
2017-10-17T21:09:12.254Z,80.30
2017-10-17T21:14:13.294Z,83.50
2017-10-17T21:19:14.349Z,85.30
2017-10-17T21:24:15.440Z,87.10
2017-10-17T21:29:16.485Z,87.40
2017-10-17T21:34:17.559Z,87.90
2017-10-17T21:39:18.610Z,90.20
2017-10-17T21:44:19.657Z,88.40
2017-10-17T21:49:20.722Z,89.00
2017-10-17T21:54:21.888Z,89.50
2017-10-17T21:59:23.014Z,90.60
2017-10-17T22:04:24.822Z,90.50
2017-10-17T22:09:25.877Z,90.40
2017-10-17T22:14:26.933Z,90.20
2017-10-17T22:19:27.990Z,92.10
2017-10-17T22:24:29.045Z,91.80
2017-10-17T22:29:30.100Z,92.00
2017-10-17T22:34:31.159Z,92.90
2017-10-17T22:39:32.230Z,93.30
2017-10-17T22:44:33.278Z,93.30
2017-10-17T22:49:34.448Z,93.50
2017-10-17T22:54:36.633Z,94.90
2017-10-17T22:59:37.774Z,94.30
2017-10-17T23:04:38.847Z,96.50
2017-10-17T23:09:39.890Z,95.50
2017-10-17T23:14:40.962Z,96.60
2017-10-17T23:25:16.968Z,98.10
2017-10-17T23:30:18.025Z,97.90
2017-10-17T23:35:19.069Z,97.40
2017-10-17T23:40:20.141Z,98.30
2017-10-17T23:45:21.191Z,99.20
2017-10-17T23:50:22.265Z,98.70
2017-10-17T23:55:23.426Z,99.60
